TimeMDT,TemperatureF,Dew PointF,Humidity,Sea Level PressureIn,VisibilityMPH,Wind Direction,Wind SpeedMPH,Gust SpeedMPH,PrecipitationIn,Events,Conditions,WindDirDegrees,DateUTC
12:00 AM,55,54,95,,,WSW,5.8,,,,,240,2013-09-09 06:00:00
12:00 AM,54.7,54.0,97,-9999,-9999.0,WSW,5.8,-,N/A,,Unknown,240,2013-09-09 06:00:00
1:00 AM,56.8,55.2,94,-9999,-9999.0,West,6.9,-,N/A,,Unknown,260,2013-09-09 07:00:00
2:00 AM,55.6,53.8,94,-9999,-9999.0,SSE,5.8,-,N/A,,Unknown,150,2013-09-09 08:00:00
3:00 AM,52.3,51.4,97,-9999,-9999.0,South,4.6,-,N/A,,Unknown,190,2013-09-09 09:00:00
4:00 AM,51.8,51.3,98,-9999,-9999.0,SW,4.6,-,N/A,,Unknown,230,2013-09-09 10:00:00
5:00 AM,50.2,49.6,98,-9999,-9999.0,WSW,4.6,-,N/A,,Unknown,240,2013-09-09 11:00:00
6:00 AM,51,51,98,,,NW,3.5,,,,,310,2013-09-09 12:00:00
6:00 AM,50.9,50.5,99,-9999,-9999.0,NW,3.5,-,N/A,,Unknown,310,2013-09-09 12:00:00
7:00 AM,47.1,46.6,98,-9999,-9999.0,SSW,4.6,-,N/A,,Unknown,210,2013-09-09 13:00:00
8:00 AM,49.8,49.5,99,-9999,-9999.0,WSW,5.8,-,N/A,,Unknown,250,2013-09-09 14:00:00
9:00 AM,57.6,54.9,91,-9999,-9999.0,WNW,2.3,-,N/A,,Unknown,300,2013-09-09 15:00:00
10:00 AM,67.8,51.6,56,-9999,-9999.0,North,15.0,-,N/A,,Unknown,350,2013-09-09 16:00:00
11:00 AM,73.6,49.5,43,-9999,-9999.0,North,15.0,-,N/A,,Unknown,360,2013-09-09 17:00:00
12:00 PM,77,48,25,,,NNW,13.8,,,,,340,2013-09-09 18:00:00
12:00 PM,77.0,47.7,35,-9999,-9999.0,NNW,13.8,-,N/A,,Unknown,340,2013-09-09 18:00:00
1:00 PM,79.0,43.2,28,-9999,-9999.0,NNW,17.3,-,N/A,,Unknown,340,2013-09-09 19:00:00
2:00 PM,80.4,41.9,25,-9999,-9999.0,NNW,15.0,-,N/A,,Unknown,340,2013-09-09 20:00:00
3:00 PM,81.1,42.4,25,-9999,-9999.0,NNW,13.8,-,N/A,,Unknown,330,2013-09-09 21:00:00
4:00 PM,81.1,41.9,25,-9999,-9999.0,NW,10.4,-,N/A,,Unknown,310,2013-09-09 22:00:00
5:00 PM,79.0,42.8,28,-9999,-9999.0,NNW,11.5,-,N/A,,Unknown,330,2013-09-09 23:00:00
6:00 PM,77,43,19,,,NNW,16.1,,,,,340,2013-09-10 00:00:00
6:00 PM,77.4,43.0,29,-9999,-9999.0,NNW,16.1,-,N/A,,Unknown,340,2013-09-10 00:00:00
7:00 PM,75.2,43.9,33,-9999,-9999.0,North,11.5,-,N/A,,Unknown,350,2013-09-10 01:00:00
8:00 PM,66.4,44.8,46,-9999,-9999.0,North,9.2,-,N/A,,Unknown,360,2013-09-10 02:00:00
9:00 PM,58.5,44.6,60,-9999,-9999.0,NNE,6.9,-,N/A,,Unknown,20,2013-09-10 03:00:00
10:00 PM,54.5,44.6,69,-9999,-9999.0,North,6.9,-,N/A,,Unknown,360,2013-09-10 04:00:00
11:00 PM,52.2,44.8,76,-9999,-9999.0,North,8.1,-,N/A,,Unknown,350,2013-09-10 05:00:00